Thursday, April 17, 2014
12:57 UTC
  |  Log In   |  Register Free
Airport Search:

Akron-Canton Regional Airport
(KCAK)

Airport information sponsored by:
Ultimate Air Center at Akron-Canton Regional (KCAK), Akron, OH
FAA data valid effective April 3, 2014 until May 29, 2014 (unless otherwise noted).

 
 
 
 
 
 
 
 
 
 
 
 
 
 

Current Aviation Weather for Akron-Canton Regional Airport (KCAK)

The most recent METAR observation for KCAK was updated at: 1151 UTC
METAR Summary (Translated METAR)
KCAK
171151Z 12012KT 10SM BKN220 03/M08 A3040 RMK AO2 SLP303 8/008 T00281078 10028 20017 52015 PNO
KAKR
(7.4 nm NW from KCAK)
171154Z AUTO 14008KT 10SM CLR 03/M08 A3039 RMK AO2 SLP299 T00331078 10039 20022 51015
TAF Summary (Translated TAF)
KCAK
171125Z 1712/1812 15010KT P6SM BKN200 FM171700 18011KT P6SM BKN200
  Airport Weather Conditions for KCAK

 Current Weather at CAK
37° F
Mostly Cloudy
Southeast winds at 13.8 mph
CAK NOAA Radar

Pressure: 30.40 in
Humidity: 46%
Wind: Southeast at 13.8 MPH (12 KT)
Dew Point: 18.0°F
Visibility: 10.00 mi


Airport Weather Forecast for KCAK

Translated METAR and TAF for KCAK
Translated METAR for KCAK (1257 UTC 17 April 2014)
found at http://aviationweather.gov/adds/metars/
 
METAR text: KCAK 171251Z 13009KT 10SM BKN220 04/M07 A3040 RMK AO2 SLP305 T00441067 PNO
Conditions at: KCAK (AKRON , OH, US) observed 1251 UTC 17 April 2014
Temperature: 4.4°C (40°F)
Dewpoint: -6.7°C (20°F) [RH = 44%]
Pressure (altimeter): 30.40 inches Hg (1029.5 mb)
[Sea-level pressure: 1030.5 mb]
Winds: from the SE (130 degrees) at 10 MPH (9 knots; 4.7 m/s)
Visibility: 10 or more miles (16+ km)
Ceiling: 22000 feet AGL
Clouds: broken clouds at 22000 feet AGL
Weather: no significant weather observed at this time
Translated TAF for KCAK
Forecast for: KCAK (AKRON , OH, US)
TAF Text: KCAK 171125Z 1712/1812 15010KT P6SM BKN200
Forecast period: 1200 to 1700 UTC 17 April 2014
Forecast type: FROM: standard forecast or significant change
Winds: from the SSE (150 degrees) at 12 MPH (10 knots; 5.2 m/s)
Visibility: 6 or more miles (10+ km)
Ceiling: 20000 feet AGL
Clouds: broken clouds at 20000 feet AGL
Weather: no significant weather forecast for this period
TAF Text: FM171700 18011KT P6SM BKN200
Forecast period: 1700 UTC 17 April 2014 to 1200 UTC 18 April 2014
Forecast type: FROM: standard forecast or significant change
Winds: from the S (180 degrees) at 13 MPH (11 knots; 5.7 m/s)
Visibility: 6 or more miles (10+ km)
Ceiling: 20000 feet AGL
Clouds: broken clouds at 20000 feet AGL
Weather: no significant weather forecast for this period

Find All Airport Services Find A Hotel Find A Rental Car Find A Golf Course Find A Restaurant $100 Hamburger



FBO's on the Field
FBO Company Facility Photos Services Transportation Aviation Fuel Prices: Prices include tax
Catering Weather Repair Courtesy Rental Type 100LL JetA JetA+ MOGAS 8087
 
Ultimate Air Center

Ultimate Air Center logo
Currently rated 4.9 by 3 people
FS:
Last Updated: Apr-14
Login to update fuel prices
SS:
Contact Ultimate Air CenterMore FBO Information
 
McKinley Air, Inc.

Currently rated 4.3 by 3 people
FS:Phillips66
Last Updated: Apr-01
Login to update fuel prices
SS:
Contact McKinley Air, Inc.More FBO Information
 
Add another FBO Facility Photos Catering Weather Repair Courtesy Rental Type 100LL JetA JetA+ MOGAS 8087
Services Transportation Aviation Fuel Prices: Prices include tax


GlobalAir.com Airport Resource Center model-print
model-print
model-print
model-print